Time;durP1;ratioP1;P1;durP2;ratioP2;P2;SDS_P1;SDS_P2;PMS_P1;PMS_P2;Temp;Humidity;BMP_temperature;BMP_pressure;BME280_temperature;BME280_humidity;BME280_pressure;Samples;Min_cycle;Max_cycle;Signal;HPM_P1;HPM_P2
2021/04/10 00:00:59;;;;;;;2.20;2.00;;;12.40;61.30;;;;;;6221669;28;20049;-75
2021/04/10 00:04:00;;;;;;;4.07;2.42;;;12.40;62.50;;;;;;6222027;28;20062;-73
2021/04/10 00:07:02;;;;;;;6.10;2.38;;;12.30;62.80;;;;;;6221940;28;20561;-76
2021/04/10 00:10:14;;;;;;;4.65;2.42;;;12.30;64.60;;;;;;6221688;28;20124;-75
2021/04/10 00:13:16;;;;;;;6.03;2.20;;;12.30;63.70;;;;;;6221221;28;20074;-75
2021/04/10 00:16:17;;;;;;;8.77;2.25;;;12.20;66.40;;;;;;6221297;28;20638;-76
2021/04/10 00:19:18;;;;;;;5.82;2.40;;;12.10;66.20;;;;;;6221508;28;20052;-75
2021/04/10 00:22:20;;;;;;;5.00;1.90;;;12.10;66.10;;;;;;6222132;28;20073;-75
2021/04/10 00:25:22;;;;;;;8.07;2.42;;;12.10;66.60;;;;;;6221596;28;20050;-75
2021/04/10 00:28:23;;;;;;;3.53;1.80;;;12.00;66.30;;;;;;6221407;28;20093;-76
2021/04/10 00:31:24;;;;;;;7.13;2.33;;;12.00;66.10;;;;;;6221390;28;20136;-75
2021/04/10 00:34:26;;;;;;;4.63;2.25;;;12.10;65.60;;;;;;6222315;28;20060;-76
2021/04/10 00:37:27;;;;;;;7.75;2.55;;;12.10;65.60;;;;;;6221800;28;20045;-75
2021/04/10 00:40:30;;;;;;;5.03;2.67;;;12.10;69.40;;;;;;6226088;28;20053;-75
2021/04/10 00:43:31;;;;;;;5.13;2.15;;;11.90;70.50;;;;;;6226444;28;20092;-75
2021/04/10 00:46:32;;;;;;;6.90;3.63;;;11.80;71.80;;;;;;6226313;28;20081;-76
2021/04/10 00:49:34;;;;;;;7.75;2.45;;;11.70;73.60;;;;;;6226258;28;20052;-75
2021/04/10 00:52:37;;;;;;;2.90;1.52;;;11.60;73.20;;;;;;6226038;28;20137;-76
2021/04/10 00:55:42;;;;;;;3.40;2.22;;;11.50;73.70;;;;;;6225972;28;20472;-75
2021/04/10 00:58:43;;;;;;;2.83;2.05;;;11.40;75.40;;;;;;6226072;28;20140;-76
2021/04/10 01:01:45;;;;;;;3.42;2.17;;;11.30;77.20;;;;;;6226029;28;20137;-76
2021/04/10 01:04:46;;;;;;;7.00;3.72;;;11.20;78.10;;;;;;6225880;28;20137;-75
2021/04/10 01:07:47;;;;;;;4.80;2.67;;;11.10;78.80;;;;;;6225680;28;20066;-75
2021/04/10 01:10:50;;;;;;;4.45;2.38;;;11.00;81.00;;;;;;6225829;28;20651;-75
2021/04/10 01:14:01;;;;;;;4.43;3.10;;;10.90;82.50;;;;;;6225609;28;20049;-75
2021/04/10 01:17:07;;;;;;;4.72;3.58;;;10.70;84.20;;;;;;6225244;28;20069;-75
2021/04/10 01:20:16;;;;;;;6.47;3.28;;;10.60;85.80;;;;;;6225664;28;20041;-76
2021/04/10 01:23:31;;;;;;;4.68;3.22;;;10.60;86.80;;;;;;6225559;28;20144;-74
2021/04/10 01:26:48;;;;;;;4.85;1.75;;;10.50;87.60;;;;;;6225712;28;20054;-75
2021/04/10 01:29:53;;;;;;;6.03;2.33;;;10.60;85.80;;;;;;6225197;28;20107;-74
2021/04/10 01:32:58;;;;;;;3.15;2.10;;;10.60;85.70;;;;;;6225372;28;20492;-76
2021/04/10 01:36:01;;;;;;;11.73;2.35;;;10.60;86.40;;;;;;6225351;28;20045;-76
2021/04/10 01:39:05;;;;;;;3.08;2.13;;;10.70;85.40;;;;;;6225328;28;20085;-75
2021/04/10 01:42:09;;;;;;;2.40;2.20;;;10.70;83.90;;;;;;6257419;22;20573;-77
2021/04/10 01:45:13;;;;;;;4.90;2.60;;;10.80;83.90;;;;;;6242983;28;20051;-75
2021/04/10 01:48:17;;;;;;;4.82;2.50;;;10.80;82.80;;;;;;6243665;28;20162;-75
2021/04/10 01:51:18;;;;;;;3.65;2.17;;;10.90;81.90;;;;;;6242902;28;20053;-75
2021/04/10 01:54:20;;;;;;;6.18;2.42;;;10.90;81.70;;;;;;6249613;28;20056;-75
2021/04/10 01:57:22;;;;;;;4.22;2.40;;;11.00;81.10;;;;;;6248795;28;20045;-75
2021/04/10 02:00:27;;;;;;;2.58;1.73;;;11.10;80.90;;;;;;6249102;28;20045;-75
2021/04/10 02:03:30;;;;;;;3.33;2.72;;;11.10;80.00;;;;;;6248922;28;20057;-75
2021/04/10 02:06:32;;;;;;;3.30;1.85;;;11.20;79.80;;;;;;6249181;28;20077;-75
2021/04/10 02:09:34;;;;;;;5.75;2.05;;;11.20;79.80;;;;;;6248797;28;20128;-75
2021/04/10 02:12:36;;;;;;;3.10;2.05;;;11.20;78.10;;;;;;6248790;28;20124;-74
2021/04/10 02:15:39;;;;;;;3.20;1.80;;;11.30;78.40;;;;;;6248662;28;20128;-76
2021/04/10 02:18:41;;;;;;;2.28;1.80;;;11.40;77.90;;;;;;6248779;28;20466;-75
2021/04/10 02:21:43;;;;;;;2.58;1.95;;;11.40;78.10;;;;;;6248630;28;20176;-75
2021/04/10 02:24:45;;;;;;;9.38;1.98;;;11.40;77.80;;;;;;6248497;28;20056;-75
2021/04/10 02:27:46;;;;;;;2.38;1.85;;;11.40;78.00;;;;;;6248477;28;20038;-75
2021/04/10 02:30:49;;;;;;;1.95;1.75;;;11.40;78.70;;;;;;6249041;28;20081;-75
2021/04/10 02:33:51;;;;;;;2.72;2.53;;;11.40;79.40;;;;;;6248098;28;20072;-75
2021/04/10 02:36:55;;;;;;;4.07;2.35;;;11.40;79.40;;;;;;6247894;28;20115;-75
2021/04/10 02:39:58;;;;;;;3.25;2.30;;;11.30;80.10;;;;;;6248098;28;20128;-75
2021/04/10 02:43:00;;;;;;;3.00;2.63;;;11.30;81.00;;;;;;6248278;28;20140;-76
2021/04/10 02:46:04;;;;;;;4.85;2.25;;;11.20;80.90;;;;;;6247860;28;20083;-75
2021/04/10 02:49:11;;;;;;;7.68;2.28;;;11.10;82.40;;;;;;6247584;28;20519;-75
2021/04/10 02:52:12;;;;;;;4.80;2.40;;;11.10;83.50;;;;;;6247792;28;20048;-75
2021/04/10 02:55:17;;;;;;;4.75;2.17;;;11.00;84.20;;;;;;6248001;28;20132;-75
2021/04/10 02:58:21;;;;;;;5.78;2.40;;;10.90;84.20;;;;;;6248179;28;20053;-77
2021/04/10 03:01:24;;;;;;;3.70;2.50;;;10.90;84.50;;;;;;6247265;28;20053;-77
2021/04/10 03:04:26;;;;;;;5.47;3.42;;;10.90;85.00;;;;;;6247493;28;20520;-76
2021/04/10 03:07:28;;;;;;;6.40;2.30;;;10.90;85.00;;;;;;6247171;28;20143;-76
2021/04/10 03:10:29;;;;;;;6.50;2.17;;;10.80;84.80;;;;;;6248218;28;20072;-76
2021/04/10 03:13:33;;;;;;;1.95;1.73;;;10.80;84.30;;;;;;6247288;28;20126;-76
2021/04/10 03:16:36;;;;;;;3.03;2.33;;;10.90;84.10;;;;;;6247049;28;20183;-76
2021/04/10 03:19:39;;;;;;;3.50;1.75;;;10.90;84.20;;;;;;6247078;28;20576;-77
2021/04/10 03:22:43;;;;;;;4.43;2.38;;;10.90;84.00;;;;;;6247724;28;20133;-76
2021/04/10 03:25:44;;;;;;;4.15;1.90;;;10.90;83.80;;;;;;6247253;28;20119;-76
2021/04/10 03:28:46;;;;;;;7.38;2.47;;;10.90;83.80;;;;;;6246660;28;20045;-77
2021/04/10 03:31:49;;;;;;;4.85;2.20;;;10.90;83.10;;;;;;6247152;28;20124;-76
2021/04/10 03:34:50;;;;;;;4.95;2.28;;;11.00;83.00;;;;;;6247605;28;20132;-76
2021/04/10 03:37:52;;;;;;;8.77;2.38;;;11.00;82.80;;;;;;6246598;28;20065;-76
2021/04/10 03:40:53;;;;;;;3.85;2.70;;;11.00;82.20;;;;;;6246607;28;20052;-76
2021/04/10 03:43:54;;;;;;;5.15;2.25;;;11.00;81.10;;;;;;6247160;28;20045;-76
2021/04/10 03:46:56;;;;;;;2.25;2.10;;;11.00;81.10;;;;;;6246394;28;20578;-76
2021/04/10 03:49:58;;;;;;;5.82;2.45;;;11.10;80.90;;;;;;6246707;28;20124;-76
2021/04/10 03:52:59;;;;;;;5.78;1.92;;;11.00;81.00;;;;;;6246618;28;20065;-76
2021/04/10 03:56:00;;;;;;;3.03;1.58;;;11.10;80.20;;;;;;6246591;28;20065;-76
2021/04/10 03:59:02;;;;;;;3.25;1.85;;;11.10;80.20;;;;;;6246838;28;20132;-76
2021/04/10 04:02:05;;;;;;;1.60;1.50;;;11.10;79.60;;;;;;6246281;28;20072;-76
2021/04/10 04:05:08;;;;;;;1.80;1.70;;;11.10;79.10;;;;;;6246712;28;20045;-76
2021/04/10 04:08:09;;;;;;;1.92;1.73;;;11.20;78.10;;;;;;6246141;28;20037;-76
2021/04/10 04:11:10;;;;;;;7.00;2.17;;;11.10;78.10;;;;;;6246841;28;20140;-76
2021/04/10 04:14:12;;;;;;;3.55;1.85;;;11.10;78.00;;;;;;6245530;28;20053;-75
2021/04/10 04:17:14;;;;;;;3.22;1.73;;;11.10;77.40;;;;;;6246094;28;20077;-76
2021/04/10 04:20:16;;;;;;;3.80;1.45;;;11.10;77.40;;;;;;6245981;28;20506;-75
2021/04/10 04:23:17;;;;;;;2.72;1.20;;;11.10;77.30;;;;;;6246554;28;20049;-75
2021/04/10 04:26:18;;;;;;;7.70;1.73;;;11.10;77.20;;;;;;6246563;28;20507;-75
2021/04/10 04:29:19;;;;;;;5.22;2.10;;;11.10;77.30;;;;;;6245790;28;20127;-75
2021/04/10 04:32:22;;;;;;;2.60;1.70;;;11.10;77.00;;;;;;6246064;28;20422;-76
2021/04/10 04:35:23;;;;;;;6.35;2.20;;;11.00;77.20;;;;;;6245795;28;20055;-75
2021/04/10 04:38:25;;;;;;;2.10;1.63;;;11.00;76.90;;;;;;6246517;28;20077;-75
2021/04/10 04:41:26;;;;;;;2.47;1.85;;;11.00;76.60;;;;;;6245978;28;20065;-75
2021/04/10 04:44:28;;;;;;;3.40;1.85;;;11.00;76.70;;;;;;6246108;28;20069;-76
2021/04/10 04:47:30;;;;;;;1.58;1.20;;;11.00;76.70;;;;;;6245618;28;20144;-75
2021/04/10 04:50:31;;;;;;;7.68;3.28;;;11.00;76.40;;;;;;6246315;28;20145;-76
2021/04/10 04:53:33;;;;;;;4.05;1.48;;;11.00;76.10;;;;;;6245712;28;20461;-76
2021/04/10 04:56:34;;;;;;;2.15;1.60;;;11.00;76.20;;;;;;6245408;28;20049;-76
2021/04/10 04:59:35;;;;;;;2.85;1.45;;;10.90;75.80;;;;;;6245624;28;20467;-76
2021/04/10 05:02:38;;;;;;;2.55;1.58;;;11.00;76.20;;;;;;6246048;28;20133;-76
2021/04/10 05:05:39;;;;;;;2.70;1.83;;;10.90;75.90;;;;;;6245609;28;20045;-75
2021/04/10 05:08:40;;;;;;;3.05;2.30;;;11.00;75.70;;;;;;6245510;28;20075;-76
2021/04/10 05:11:42;;;;;;;8.60;3.60;;;11.00;75.50;;;;;;6245863;28;20124;-76
2021/04/10 05:14:43;;;;;;;1.83;1.73;;;10.90;75.50;;;;;;6246083;28;20077;-76
2021/04/10 05:17:45;;;;;;;2.55;2.08;;;10.90;75.20;;;;;;6245342;28;20056;-76
2021/04/10 05:20:47;;;;;;;1.75;1.42;;;11.00;74.60;;;;;;6245490;28;20128;-76
2021/04/10 05:23:48;;;;;;;4.82;1.90;;;11.00;74.30;;;;;;6246637;28;20052;-76
2021/04/10 05:26:49;;;;;;;2.90;1.80;;;11.00;74.00;;;;;;6250013;28;20140;-76
2021/04/10 05:29:51;;;;;;;1.80;1.63;;;11.00;74.00;;;;;;6249949;28;20069;-76
2021/04/10 05:32:53;;;;;;;11.85;2.33;;;11.00;73.80;;;;;;6249852;28;20065;-75
2021/04/10 05:35:54;;;;;;;3.00;1.70;;;11.00;73.70;;;;;;6249548;28;20041;-75
2021/04/10 05:38:55;;;;;;;2.25;1.55;;;11.00;73.70;;;;;;6250076;28;20140;-75
2021/04/10 05:41:57;;;;;;;4.22;1.75;;;11.00;73.30;;;;;;6249156;28;20087;-75
2021/04/10 05:44:58;;;;;;;3.10;1.85;;;11.00;73.40;;;;;;6249379;28;20463;-76
2021/04/10 05:48:01;;;;;;;3.00;2.40;;;11.00;73.50;;;;;;6249027;28;20164;-76
2021/04/10 05:51:02;;;;;;;3.53;1.60;;;11.00;73.30;;;;;;6249801;28;20076;-76
2021/04/10 05:54:04;;;;;;;4.50;2.97;;;11.00;73.20;;;;;;6249079;28;20069;-76
2021/04/10 05:57:06;;;;;;;3.55;1.95;;;11.00;72.90;;;;;;6248386;28;20418;-76
2021/04/10 06:00:08;;;;;;;3.33;1.38;;;11.00;72.80;;;;;;6248941;28;20571;-76
2021/04/10 06:03:10;;;;;;;2.90;1.65;;;11.00;72.20;;;;;;6246529;28;20448;-75
2021/04/10 06:06:12;;;;;;;2.58;1.40;;;11.10;71.90;;;;;;6232632;28;20048;-76
2021/04/10 06:09:14;;;;;;;1.52;1.10;;;11.10;71.90;;;;;;6231032;28;20041;-75
2021/04/10 06:12:15;;;;;;;4.68;2.33;;;11.10;71.30;;;;;;6249362;28;20502;-75
2021/04/10 06:15:19;;;;;;;1.85;1.50;;;11.10;71.20;;;;;;6227132;28;20192;-76
2021/04/10 06:18:22;;;;;;;2.17;1.55;;;11.20;71.30;;;;;;6224545;28;20105;-76
2021/04/10 06:21:23;;;;;;;3.30;1.60;;;11.20;70.80;;;;;;6225594;28;20057;-75
2021/04/10 06:24:24;;;;;;;3.75;1.85;;;11.20;70.30;;;;;;6248690;28;20196;-76
2021/04/10 06:27:26;;;;;;;1.70;1.60;;;11.20;70.00;;;;;;6248449;28;20088;-75
2021/04/10 06:30:27;;;;;;;2.88;1.80;;;11.20;69.70;;;;;;6249033;28;20137;-75
2021/04/10 06:33:29;;;;;;;1.80;1.38;;;11.20;69.50;;;;;;6248177;28;20095;-76
2021/04/10 06:36:31;;;;;;;2.17;1.23;;;;;;;;;;6247509;28;20132;-76
2021/04/10 06:39:32;;;;;;;4.82;1.42;;;11.30;68.80;;;;;;6237217;28;20107;-76
2021/04/10 06:42:34;;;;;;;1.95;1.38;;;11.30;69.20;;;;;;6223773;28;20571;-75
2021/04/10 06:45:36;;;;;;;2.03;1.30;;;11.30;69.70;;;;;;6224223;28;20566;-76
2021/04/10 06:48:40;;;;;;;1.88;1.50;;;11.30;69.50;;;;;;6222879;28;20411;-76
2021/04/10 06:51:41;;;;;;;4.65;1.67;;;11.30;69.40;;;;;;6223187;28;20065;-76
2021/04/10 06:54:48;;;;;;;2.85;1.85;;;11.30;69.20;;;;;;6224090;28;20117;-76
2021/04/10 06:57:53;;;;;;;4.07;1.92;;;;;;;;;;6223302;28;20125;-75
2021/04/10 07:00:55;;;;;;;3.55;1.83;;;11.20;69.00;;;;;;6222773;28;20152;-76
2021/04/10 07:03:57;;;;;;;2.67;1.90;;;11.20;69.90;;;;;;6223244;28;20173;-75
2021/04/10 07:06:59;;;;;;;2.00;1.20;;;11.20;69.80;;;;;;6222933;28;20510;-76
2021/04/10 07:10:03;;;;;;;2.67;2.05;;;11.20;69.70;;;;;;6222712;28;20129;-75
2021/04/10 07:13:05;;;;;;;5.43;1.65;;;11.30;69.40;;;;;;6223199;28;20054;-74
2021/04/10 07:16:07;;;;;;;5.30;1.75;;;11.30;69.30;;;;;;6222648;28;20065;-75
2021/04/10 07:19:12;;;;;;;2.50;2.30;;;11.20;69.50;;;;;;6223139;28;20052;-76
2021/04/10 07:22:16;;;;;;;3.13;1.55;;;11.30;69.20;;;;;;6222479;28;20052;-75
2021/04/10 07:25:23;;;;;;;3.40;1.73;;;11.30;69.20;;;;;;6222665;28;20188;-75
2021/04/10 07:28:29;;;;;;;1.83;1.33;;;11.30;69.20;;;;;;6222496;28;20052;-76
2021/04/10 07:31:33;;;;;;;6.13;1.77;;;11.30;69.30;;;;;;6222392;28;20045;-76
2021/04/10 07:34:45;;;;;;;2.10;1.90;;;11.30;69.70;;;;;;6222705;28;20144;-75
2021/04/10 07:37:48;;;;;;;3.50;1.60;;;11.30;69.30;;;;;;6222106;28;20050;-76
2021/04/10 07:40:49;;;;;;;2.92;2.22;;;11.40;69.50;;;;;;6222318;28;20042;-76
2021/04/10 07:43:51;;;;;;;3.38;1.33;;;11.40;69.30;;;;;;6264228;23;20073;-74
2021/04/10 07:47:02;;;;;;;5.07;2.40;;;11.60;68.90;;;;;;6247536;28;20076;-74
2021/04/10 07:50:19;;;;;;;2.58;1.67;;;11.70;68.50;;;;;;6248659;28;20516;-74
2021/04/10 07:53:23;;;;;;;6.43;1.50;;;11.80;68.10;;;;;;6248914;28;20120;-74
2021/04/10 07:56:24;;;;;;;4.07;1.60;;;12.00;68.30;;;;;;6248494;28;20528;-74
2021/04/10 07:59:26;;;;;;;3.08;1.90;;;12.10;67.60;;;;;;6246532;28;20092;-74
2021/04/10 08:02:34;;;;;;;2.10;1.65;;;12.20;67.30;;;;;;6247227;28;20060;-75
2021/04/10 08:05:36;;;;;;;1.73;1.27;;;12.30;67.20;;;;;;6246429;28;20056;-76
2021/04/10 08:08:53;;;;;;;2.95;1.83;;;12.50;80.70;;;;;;6246134;28;20502;-75
2021/04/10 08:11:55;;;;;;;1.85;1.38;;;12.60;81.20;;;;;;6246864;28;20123;-75
2021/04/10 08:14:57;;;;;;;2.78;1.58;;;12.50;66.70;;;;;;6247012;28;20081;-75
2021/04/10 08:17:58;;;;;;;2.17;1.80;;;;;;;;;;6245963;28;20073;-75
2021/04/10 08:21:01;;;;;;;6.38;2.25;;;12.60;65.60;;;;;;6246001;28;20045;-76
2021/04/10 08:24:04;;;;;;;1.45;1.30;;;12.70;66.00;;;;;;6245926;28;20495;-77
2021/04/10 08:27:08;;;;;;;2.85;1.95;;;12.70;66.00;;;;;;6246473;28;20077;-75
2021/04/10 08:30:10;;;;;;;1.40;1.02;;;12.70;65.90;;;;;;6245961;28;20123;-76
2021/04/10 08:33:11;;;;;;;2.08;1.17;;;12.70;65.90;;;;;;6245952;28;20120;-76
2021/04/10 08:36:16;;;;;;;1.60;1.50;;;12.70;65.70;;;;;;6246194;28;20150;-76
2021/04/10 08:39:20;;;;;;;1.30;1.20;;;12.70;65.80;;;;;;6246101;28;20140;-75
2021/04/10 08:42:24;;;;;;;6.15;1.50;;;12.70;65.70;;;;;;6246428;28;20056;-76
2021/04/10 08:45:30;;;;;;;2.13;1.42;;;12.60;66.10;;;;;;6245880;28;20136;-76
2021/04/10 08:48:32;;;;;;;2.10;1.20;;;12.60;66.40;;;;;;6246056;28;20520;-77
2021/04/10 08:51:39;;;;;;;7.78;1.92;;;12.60;66.20;;;;;;6245969;28;20125;-75
2021/04/10 08:54:45;;;;;;;2.72;1.30;;;12.50;66.40;;;;;;6246942;28;20055;-76
2021/04/10 08:57:47;;;;;;;1.75;1.65;;;12.50;66.40;;;;;;6245632;28;20132;-75
2021/04/10 09:00:57;;;;;;;1.63;1.30;;;12.70;65.90;;;;;;6250675;28;20041;-75
2021/04/10 09:03:58;;;;;;;2.13;1.27;;;12.80;65.60;;;;;;6250454;28;20049;-74
2021/04/10 09:07:00;;;;;;;4.00;1.33;;;12.80;65.90;;;;;;6250836;28;20077;-75
2021/04/10 09:10:01;;;;;;;2.75;1.17;;;12.80;65.90;;;;;;6250088;28;20124;-75
2021/04/10 09:13:28;;;;;;;2.25;1.10;;;12.70;65.80;;;;;;6250286;28;20128;-75
2021/04/10 09:16:33;;;;;;;4.07;1.90;;;12.60;65.80;;;;;;6250315;28;20124;-76
2021/04/10 09:19:37;;;;;;;2.88;1.15;;;12.50;66.00;;;;;;6249913;28;20048;-75
2021/04/10 09:22:40;;;;;;;1.92;1.20;;;12.50;66.20;;;;;;6250677;28;20136;-75
2021/04/10 09:25:42;;;;;;;3.50;2.67;;;12.50;66.10;;;;;;6249804;28;20417;-74
2021/04/10 09:29:19;;;;;;;2.10;1.15;;;12.40;65.60;;;;;;6249731;28;20047;-75
2021/04/10 09:32:33;;;;;;;2.80;1.50;;;12.60;65.40;;;;;;6247326;28;20041;-76
2021/04/10 09:35:36;;;;;;;1.52;1.13;;;12.80;65.20;;;;;;6249527;28;20069;-75
2021/04/10 09:38:39;;;;;;;2.05;1.77;;;12.80;64.70;;;;;;6249797;28;20053;-75
2021/04/10 09:41:50;;;;;;;1.95;1.13;;;12.90;64.80;;;;;;6249376;28;20184;-76
2021/04/10 09:45:05;;;;;;;2.08;1.63;;;13.00;64.00;;;;;;6249598;28;20045;-75
2021/04/10 09:48:26;;;;;;;1.23;1.02;;;13.00;64.20;;;;;;6249358;28;20124;-75
2021/04/10 09:51:27;;;;;;;1.20;0.98;;;12.90;64.20;;;;;;6249795;28;20049;-75
2021/04/10 09:54:31;;;;;;;1.38;1.23;;;12.80;64.00;;;;;;6251499;28;20525;-76
2021/04/10 09:57:33;;;;;;;1.10;1.00;;;12.70;64.60;;;;;;6251325;28;20422;-77
2021/04/10 10:00:37;;;;;;;3.33;1.10;;;12.80;64.70;;;;;;6251747;28;20129;-76
2021/04/10 10:03:39;;;;;;;3.00;0.90;;;12.90;64.50;;;;;;6252947;28;20122;-77
2021/04/10 10:06:46;;;;;;;2.33;1.00;;;12.90;64.80;;;;;;6251584;28;20052;-77
2021/04/10 10:10:06;;;;;;;1.60;1.10;;;13.00;64.30;;;;;;6250007;28;20219;-77
2021/04/10 10:13:09;;;;;;;2.15;1.10;;;13.10;64.10;;;;;;6252824;28;20383;-77
2021/04/10 10:16:11;;;;;;;2.22;1.10;;;13.10;63.80;;;;;;6254115;28;20048;-77
2021/04/10 10:19:20;;;;;;;0.93;0.93;;;13.10;63.80;;;;;;6254792;28;20137;-78
2021/04/10 10:22:28;;;;;;;1.08;0.90;;;13.10;63.20;;;;;;6254532;28;20124;-77
2021/04/10 10:25:30;;;;;;;2.42;0.98;;;13.00;63.30;;;;;;6252130;28;20112;-77
2021/04/10 10:28:32;;;;;;;2.97;1.02;;;12.90;64.20;;;;;;6251186;28;20571;-76
2021/04/10 10:31:41;;;;;;;0.80;0.80;;;12.90;64.10;;;;;;6249371;28;20843;-77
2021/04/10 10:34:47;;;;;;;1.02;0.70;;;12.90;64.20;;;;;;6269169;28;20050;-75
2021/04/10 10:37:50;;;;;;;0.93;0.93;;;12.90;64.30;;;;;;6250586;28;20057;-76
2021/04/10 10:40:52;;;;;;;2.45;1.20;;;13.00;64.40;;;;;;6248569;28;20171;-76
2021/04/10 10:44:00;;;;;;;1.25;1.15;;;13.00;64.70;;;;;;6248242;28;20065;-76
2021/04/10 10:47:03;;;;;;;2.45;1.35;;;13.10;64.20;;;;;;6248643;28;20589;-76
2021/04/10 10:50:06;;;;;;;2.70;2.08;;;13.20;66.90;;;;;;6247964;28;20080;-76
2021/04/10 10:53:16;;;;;;;5.07;2.13;;;13.50;66.50;;;;;;6250098;28;20144;-77
2021/04/10 10:56:20;;;;;;;3.60;2.38;;;13.80;64.80;;;;;;6255255;28;20048;-77
2021/04/10 10:59:27;;;;;;;2.38;2.17;;;14.00;64.40;;;;;;6252709;28;20159;-77
2021/04/10 11:02:29;;;;;;;3.70;1.92;;;14.40;66.10;;;;;;6251566;28;20582;-77
2021/04/10 11:05:33;;;;;;;1.33;1.23;;;14.80;64.10;;;;;;6248937;28;20053;-77
2021/04/10 11:08:35;;;;;;;1.40;1.00;;;15.10;60.50;;;;;;6251654;28;20041;-78
2021/04/10 11:11:38;;;;;;;2.92;1.20;;;15.20;59.70;;;;;;6254192;28;20041;-76
2021/04/10 11:14:42;;;;;;;1.33;0.90;;;15.20;58.90;;;;;;6234081;28;20775;-77
2021/04/10 11:17:43;;;;;;;1.13;1.02;;;15.40;58.20;;;;;;6227305;28;20499;-77
2021/04/10 11:20:45;;;;;;;2.63;1.23;;;15.80;57.40;;;;;;6230372;28;20128;-77
2021/04/10 11:24:12;;;;;;;1.67;1.00;;;16.40;55.50;;;;;;6229163;28;20046;-76
2021/04/10 11:27:16;;;;;;;1.52;1.17;;;16.80;53.70;;;;;;6220437;28;20054;-77
2021/04/10 11:30:18;;;;;;;1.85;0.73;;;17.30;53.00;;;;;;6229674;28;20124;-77
2021/04/10 11:33:32;;;;;;;7.05;1.67;;;17.80;51.60;;;;;;6230623;28;20133;-78
2021/04/10 11:36:51;;;;;;;1.95;1.00;;;18.20;52.70;;;;;;6231587;28;20045;-78
2021/04/10 11:39:57;;;;;;;0.85;0.70;;;18.20;49.10;;;;;;6230743;28;20046;-77
2021/04/10 11:43:01;;;;;;;1.48;1.10;;;18.20;46.40;;;;;;6227486;28;20124;-77
2021/04/10 11:46:02;;;;;;;5.78;1.10;;;18.30;47.80;;;;;;6226694;28;20418;-78
2021/04/10 11:49:04;;;;;;;1.30;0.82;;;18.60;47.20;;;;;;6228064;28;20050;-77
2021/04/10 11:52:08;;;;;;;5.25;1.45;;;18.80;44.60;;;;;;6228341;28;20074;-77
2021/04/10 11:55:14;;;;;;;1.63;0.90;;;19.10;43.40;;;;;;6227399;28;20113;-77
2021/04/10 11:58:27;;;;;;;7.30;1.17;;;19.20;43.80;;;;;;6244727;28;20077;-78
2021/04/10 12:01:29;;;;;;;1.42;1.15;;;19.40;43.80;;;;;;6251501;28;20095;-78
2021/04/10 12:04:32;;;;;;;7.97;1.13;;;19.50;40.90;;;;;;6265517;28;20041;-76
2021/04/10 12:11:15;;;;;;;3.63;1.05;;;19.40;40.30;;;;;;6277824;28;20056;-76
2021/04/10 12:14:17;;;;;;;2.42;1.20;;;19.20;40.80;;;;;;6262356;28;20030;-75
2021/04/10 12:17:19;;;;;;;3.10;1.17;;;19.00;40.00;;;;;;6253669;28;20058;-76
2021/04/10 12:20:20;;;;;;;1.58;1.10;;;18.70;39.50;;;;;;6254125;28;20048;-75
2021/04/10 12:23:22;;;;;;;3.15;1.10;;;18.60;40.20;;;;;;6253598;28;20053;-75
2021/04/10 12:26:24;;;;;;;1.77;0.82;;;18.40;40.20;;;;;;6253727;28;20026;-76
2021/04/10 12:29:26;;;;;;;2.08;1.10;;;18.30;41.00;;;;;;6236319;28;20112;-77
2021/04/10 12:32:27;;;;;;;3.03;1.17;;;18.10;41.50;;;;;;6224254;28;20110;-77
2021/04/10 12:35:29;;;;;;;3.03;1.00;;;17.90;41.90;;;;;;6229260;28;20121;-77
2021/04/10 12:38:30;;;;;;;1.88;1.40;;;17.80;42.00;;;;;;6241639;28;20050;-77
2021/04/10 12:41:31;;;;;;;2.03;1.40;;;17.70;42.70;;;;;;6256019;28;20054;-76
2021/04/10 12:44:34;;;;;;;4.03;1.73;;;17.70;43.10;;;;;;6254257;28;20040;-77
2021/04/10 12:47:35;;;;;;;1.23;0.70;;;17.70;43.80;;;;;;6250847;28;20042;-76
2021/04/10 12:50:37;;;;;;;2.50;1.80;;;17.70;43.00;;;;;;6245913;28;20046;-78
2021/04/10 12:53:38;;;;;;;14.40;13.13;;;17.90;41.90;;;;;;6236501;28;20125;-78
2021/04/10 12:56:39;;;;;;;244.65;177.25;;;18.10;41.60;;;;;;6232421;28;20137;-78
2021/04/10 12:59:42;;;;;;;109.40;68.50;;;18.30;40.10;;;;;;6231357;28;20125;-79
2021/04/10 13:02:44;;;;;;;23.63;19.83;;;18.40;40.70;;;;;;6232282;28;20056;-77
2021/04/10 13:05:46;;;;;;;16.23;14.85;;;18.50;40.20;;;;;;6230659;28;20049;-77
2021/04/10 13:08:47;;;;;;;1.67;1.58;;;18.50;41.10;;;;;;6231182;28;20041;-77
2021/04/10 13:11:48;;;;;;;20.38;15.80;;;18.50;39.70;;;;;;6245570;28;20174;-76
2021/04/10 13:14:52;;;;;;;12.60;7.45;;;18.60;39.80;;;;;;6258360;28;20053;-77
2021/04/10 13:17:53;;;;;;;21.52;18.58;;;18.60;39.90;;;;;;6257743;28;20052;-78
2021/04/10 13:20:55;;;;;;;22.98;17.65;;;18.70;39.10;;;;;;6255473;28;20065;-77
2021/04/10 13:23:56;;;;;;;12.65;11.30;;;18.80;38.70;;;;;;6258562;28;20502;-77
2021/04/10 13:26:58;;;;;;;15.88;13.95;;;18.70;38.70;;;;;;6261250;28;20479;-77
2021/04/10 13:30:01;;;;;;;9.98;8.98;;;18.60;39.20;;;;;;6259748;28;20056;-77
2021/04/10 13:33:02;;;;;;;8.90;7.82;;;18.60;39.20;;;;;;6256184;28;20045;-77
2021/04/10 13:36:04;;;;;;;7.63;4.80;;;18.70;39.20;;;;;;6257091;28;20416;-77
2021/04/10 13:39:08;;;;;;;3.05;0.95;;;18.80;38.90;;;;;;6257316;28;20076;-76
2021/04/10 13:42:10;;;;;;;4.63;3.63;;;19.00;39.20;;;;;;6257753;28;20107;-76
2021/04/10 13:45:27;;;;;;;5.47;4.45;;;19.30;38.60;;;;;;6258464;28;20108;-78
2021/04/10 13:48:31;;;;;;;3.85;2.72;;;19.50;38.20;;;;;;6249233;28;20048;-80
2021/04/10 13:51:33;;;;;;;3.45;3.15;;;19.40;38.70;;;;;;6258326;28;20929;-78
2021/04/10 13:54:36;;;;;;;7.28;6.35;;;19.20;39.00;;;;;;6261242;28;20047;-79
2021/04/10 13:57:41;;;;;;;8.93;5.82;;;19.20;38.60;;;;;;6259939;28;20128;-78
2021/04/10 14:00:45;;;;;;;1.20;0.90;;;19.20;38.50;;;;;;6255911;28;20041;-77
2021/04/10 14:03:46;;;;;;;2.15;1.40;;;19.40;39.00;;;;;;6251743;28;20121;-78
2021/04/10 14:06:49;;;;;;;3.72;0.95;;;19.60;37.80;;;;;;6252868;28;20514;-77
2021/04/10 14:09:50;;;;;;;4.10;3.78;;;19.70;37.20;;;;;;6251552;28;20080;-77
2021/04/10 14:12:53;;;;;;;3.42;3.13;;;19.80;37.60;;;;;;6238020;28;20041;-77
2021/04/10 14:15:57;;;;;;;2.38;0.85;;;19.80;38.20;;;;;;6251288;28;20503;-77
2021/04/10 14:18:59;;;;;;;7.97;4.25;;;19.70;37.60;;;;;;6251086;28;20084;-77
2021/04/10 14:22:01;;;;;;;3.92;1.80;;;19.70;38.20;;;;;;6250199;28;20049;-77
2021/04/10 14:25:04;;;;;;;1.55;1.40;;;19.70;38.10;;;;;;6251454;28;20060;-77
2021/04/10 14:28:07;;;;;;;6.07;5.57;;;19.70;38.00;;;;;;6251195;28;20052;-77
2021/04/10 14:31:10;;;;;;;4.75;3.97;;;19.90;37.70;;;;;;6254961;28;20048;-77
2021/04/10 14:34:11;;;;;;;8.57;6.13;;;20.10;37.30;;;;;;6250829;28;20072;-77
2021/04/10 14:37:13;;;;;;;2.92;1.65;;;20.30;37.10;;;;;;6249467;28;20129;-77
2021/04/10 14:40:17;;;;;;;4.70;3.03;;;20.30;37.10;;;;;;6250801;28;20132;-77
2021/04/10 14:43:20;;;;;;;3.42;3.13;;;20.40;36.80;;;;;;6250103;28;20470;-77
2021/04/10 14:46:21;;;;;;;3.42;2.63;;;20.40;36.40;;;;;;6251297;28;20055;-77
2021/04/10 14:49:23;;;;;;;8.75;5.40;;;20.40;36.60;;;;;;6250467;28;20479;-77
2021/04/10 14:52:25;;;;;;;5.55;5.05;;;20.30;36.40;;;;;;6251400;28;20128;-77
2021/04/10 14:55:27;;;;;;;2.47;1.45;;;20.10;36.70;;;;;;6250676;28;20199;-77
2021/04/10 14:58:29;;;;;;;10.30;8.00;;;20.00;37.50;;;;;;6249737;28;20145;-77
2021/04/10 15:01:31;;;;;;;2.55;1.90;;;19.90;37.00;;;;;;6250537;28;20045;-78
2021/04/10 15:04:32;;;;;;;17.00;10.25;;;19.90;37.10;;;;;;6249700;28;20123;-78
2021/04/10 15:07:34;;;;;;;4.40;3.28;;;19.80;37.40;;;;;;6249831;28;20406;-77
2021/04/10 15:10:36;;;;;;;7.45;4.68;;;19.60;37.20;;;;;;6250697;28;20081;-77
2021/04/10 15:13:44;;;;;;;20.52;18.48;;;19.50;37.10;;;;;;6242891;28;20045;-78
2021/04/10 15:16:46;;;;;;;12.00;10.07;;;19.40;38.00;;;;;;6248757;28;20502;-77
2021/04/10 15:19:47;;;;;;;12.30;10.57;;;19.20;38.30;;;;;;6250718;28;20049;-78
2021/04/10 15:22:50;;;;;;;9.32;8.18;;;19.00;38.30;;;;;;6247765;28;20050;-76
2021/04/10 15:25:51;;;;;;;14.07;11.00;;;18.80;38.60;;;;;;6247573;28;20132;-77
2021/04/10 15:28:53;;;;;;;20.83;16.08;;;18.70;38.70;;;;;;6247221;28;20128;-76
2021/04/10 15:31:54;;;;;;;13.57;10.32;;;18.60;39.00;;;;;;6251272;28;20654;-78
2021/04/10 15:34:55;;;;;;;3.63;2.17;;;18.50;39.00;;;;;;6249059;28;20136;-76
2021/04/10 15:37:57;;;;;;;5.18;3.70;;;18.50;39.50;;;;;;6246907;28;20525;-77
2021/04/10 15:40:59;;;;;;;9.98;4.78;;;18.50;39.60;;;;;;6246511;28;20083;-77
2021/04/10 15:44:00;;;;;;;2.20;1.38;;;18.40;40.10;;;;;;6246788;28;20109;-77
2021/04/10 15:47:01;;;;;;;3.75;1.50;;;18.30;39.90;;;;;;6247663;28;20132;-76
2021/04/10 15:50:04;;;;;;;2.35;2.05;;;18.30;39.80;;;;;;6247757;28;20084;-77
2021/04/10 15:53:06;;;;;;;3.25;1.25;;;18.30;39.80;;;;;;6248169;28;20132;-76
2021/04/10 15:56:08;;;;;;;5.78;1.80;;;18.30;40.10;;;;;;6247286;28;20120;-76